createdAt,value
2019-03-05T00:01:42.990Z,98906.03
2019-03-05T00:04:13.479Z,98912.63
2019-03-05T00:06:43.978Z,98901.48
2019-03-05T00:09:22.844Z,98916.56
2019-03-05T00:11:53.538Z,98905.00
2019-03-05T00:14:24.421Z,98922.86
2019-03-05T00:16:54.960Z,98901.84
2019-03-05T00:19:25.438Z,98917.25
2019-03-05T00:21:55.967Z,98918.95
2019-03-05T00:25:01.873Z,98918.95
2019-03-05T00:27:37.657Z,98922.59
2019-03-05T00:31:00.485Z,98927.37
2019-03-05T00:34:19.507Z,98933.75
2019-03-05T00:37:25.543Z,98929.63
2019-03-05T00:40:37.471Z,98933.78
2019-03-05T00:43:13.615Z,98936.38
2019-03-05T00:46:26.364Z,98940.97
2019-03-05T00:50:02.171Z,98943.63
2019-03-05T00:53:13.576Z,98938.05
2019-03-05T00:56:16.328Z,98953.97
2019-03-05T00:58:57.752Z,98946.28
2019-03-05T01:02:10.319Z,98958.27
2019-03-05T01:05:30.044Z,98957.61
2019-03-05T01:08:00.603Z,98961.66
2019-03-05T01:10:31.133Z,98960.89
2019-03-05T01:13:01.657Z,98965.16
2019-03-05T01:15:32.221Z,98963.99
2019-03-05T01:18:02.694Z,98972.23
2019-03-05T01:20:33.167Z,98965.37
2019-03-05T01:23:03.716Z,98964.03
2019-03-05T01:25:34.823Z,98977.33
2019-03-05T01:28:06.036Z,98978.34
2019-03-05T01:30:57.813Z,98980.17
2019-03-05T01:33:32.063Z,98976.89
2019-03-05T01:36:07.593Z,98977.84
2019-03-05T01:39:00.031Z,98979.19
2019-03-05T01:41:31.184Z,98978.23
2019-03-05T01:44:01.655Z,98988.70
2019-03-05T01:46:32.191Z,98986.44
2019-03-05T01:49:02.756Z,98983.00
2019-03-05T01:51:33.233Z,98987.09
2019-03-05T01:54:03.743Z,98986.44
2019-03-05T01:56:34.334Z,98982.31
2019-03-05T01:59:04.832Z,98979.69
2019-03-05T02:01:35.335Z,98986.44
2019-03-05T02:04:06.010Z,98993.66
2019-03-05T02:06:36.512Z,98991.36
2019-03-05T02:09:09.182Z,98991.69
2019-03-05T02:11:39.734Z,98994.28
2019-03-05T02:14:10.234Z,98984.41
2019-03-05T02:16:40.741Z,98983.92
2019-03-05T02:19:40.926Z,98989.65
2019-03-05T02:22:31.758Z,98995.63
2019-03-05T02:26:04.230Z,98997.53
2019-03-05T02:29:07.338Z,98994.87
2019-03-05T02:32:36.124Z,99000.48
